Terminal Aerodrome Forecast
Issued by NWS Indianapolis, IN

Home | Current Version | Previous Version | Text Only | Print | Product List | Glossary On
Versions: 1 2 3 4 5 6 7 8 9 10 11 12 13 14 15 16 17 18 19 20 21 22 23 24
863
FTUS43 KIND 261720
TAFIND
TAF
KIND 261720Z 2618/2724 25011KT P6SM VCTS SCT020 BKN050CB
     FM261900 20011KT P6SM SCT030 BKN100
     FM270000 19007KT P6SM SCT100 BKN250=

USA.gov is the U.S. government's official web portal to all federal, state and local government web resources and services.